Time;durP1;ratioP1;P1;durP2;ratioP2;P2;SDS_P1;SDS_P2;PMS_P1;PMS_P2;Temp;Humidity;BMP_temperature;BMP_pressure;BME280_temperature;BME280_humidity;BME280_pressure;Samples;Min_cycle;Max_cycle;Signal;HPM_P1;HPM_P2
2023/08/07 00:00:26;;;;;;;1.90;1.70;;;;;;;12.96;100.00;97572.69;4173374;28;20049;-72
2023/08/07 00:02:26;;;;;;;2.25;1.80;;;;;;;12.95;100.00;97569.13;4173528;28;20076;-72
2023/08/07 00:04:26;;;;;;;1.95;1.70;;;;;;;12.97;100.00;97561.16;4173401;28;20083;-72
2023/08/07 00:06:27;;;;;;;2.10;1.70;;;;;;;12.99;100.00;97569.06;4173110;28;20076;-72
2023/08/07 00:08:27;;;;;;;2.22;1.70;;;;;;;12.96;100.00;97576.25;4173280;28;20041;-72
2023/08/07 00:10:27;;;;;;;3.47;1.90;;;;;;;13.03;100.00;97569.84;4173558;28;20049;-72
2023/08/07 00:12:28;;;;;;;2.38;1.88;;;;;;;12.97;100.00;97577.03;4172259;28;20053;-72
2023/08/07 00:14:28;;;;;;;2.00;1.70;;;;;;;12.98;100.00;97575.84;4172843;28;20044;-72
2023/08/07 00:16:28;;;;;;;2.38;1.77;;;;;;;12.96;100.00;97575.47;4173451;28;20496;-72
2023/08/07 00:18:29;;;;;;;2.35;1.90;;;;;;;12.93;100.00;97568.78;4173305;28;20049;-72
2023/08/07 00:20:30;;;;;;;2.20;1.80;;;;;;;12.85;100.00;97572.84;4173137;28;20045;-72
2023/08/07 00:22:30;;;;;;;3.35;1.60;;;;;;;12.86;100.00;97571.63;4172625;28;20229;-72
2023/08/07 00:24:31;;;;;;;2.50;2.00;;;;;;;12.89;100.00;97570.78;4173430;28;20049;-72
2023/08/07 00:26:32;;;;;;;2.03;1.77;;;;;;;12.86;100.00;97572.41;4172923;28;20059;-72
2023/08/07 00:28:32;;;;;;;2.15;1.63;;;;;;;12.90;100.00;97581.47;4172903;28;20064;-72
2023/08/07 00:30:32;;;;;;;1.98;1.77;;;;;;;12.93;100.00;97571.53;4173469;28;20208;-72
2023/08/07 00:32:33;;;;;;;2.40;1.80;;;;;;;12.87;100.00;97571.22;4172693;28;20440;-72
2023/08/07 00:34:33;;;;;;;2.10;1.70;;;;;;;12.82;100.00;97581.97;4173031;28;20056;-72
2023/08/07 00:36:34;;;;;;;2.30;1.80;;;;;;;12.85;100.00;97579.16;4173029;28;20364;-72
2023/08/07 00:38:35;;;;;;;2.40;1.90;;;;;;;12.81;100.00;97575.63;4173466;28;20044;-72
2023/08/07 00:40:39;;;;;;;1.90;1.63;;;;;;;12.85;100.00;97570.06;4172450;28;20064;-72
2023/08/07 00:42:39;;;;;;;2.65;1.60;;;;;;;12.81;100.00;97572.84;4170807;28;20085;-72
2023/08/07 00:44:40;;;;;;;1.88;1.55;;;;;;;12.87;100.00;97585.09;4173521;28;20051;-72
2023/08/07 00:46:41;;;;;;;2.05;1.60;;;;;;;12.89;100.00;97587.44;4171964;28;20056;-72
2023/08/07 00:48:42;;;;;;;1.77;1.40;;;;;;;12.89;100.00;97584.66;4172954;28;20063;-72
2023/08/07 00:50:43;;;;;;;2.38;1.50;;;;;;;12.85;100.00;97589.50;4173074;28;20084;-72
2023/08/07 00:52:44;;;;;;;1.60;1.50;;;;;;;12.85;100.00;97595.81;4172700;28;20140;-72
2023/08/07 00:54:45;;;;;;;1.80;1.27;;;;;;;12.94;100.00;97598.09;4172634;28;20124;-72
2023/08/07 00:56:45;;;;;;;1.60;1.25;;;;;;;12.89;100.00;97602.09;4172964;28;20496;-72
2023/08/07 00:58:46;;;;;;;1.10;1.00;;;;;;;12.90;100.00;97589.00;4172726;28;20427;-72
2023/08/07 01:00:46;;;;;;;2.22;1.42;;;;;;;12.82;100.00;97596.63;4172371;28;20183;-72
2023/08/07 01:02:50;;;;;;;1.27;1.00;;;;;;;12.83;100.00;97592.69;4172449;28;20374;-72
2023/08/07 01:04:51;;;;;;;2.65;1.17;;;;;;;12.83;100.00;97598.22;4172438;28;20194;-72
2023/08/07 01:06:51;;;;;;;2.00;1.10;;;;;;;12.79;100.00;97594.69;4172891;28;20092;-72
2023/08/07 01:08:51;;;;;;;1.20;0.95;;;;;;;12.74;100.00;97600.69;4172315;28;20049;-72
2023/08/07 01:11:04;;;;;;;1.38;0.90;;;;;;;12.74;100.00;97609.03;4173099;28;20045;-72
2023/08/07 01:13:14;;;;;;;0.68;0.57;;;;;;;12.73;100.00;97603.88;4171525;28;20474;-72
2023/08/07 01:15:20;;;;;;;0.82;0.80;;;;;;;12.72;100.00;97611.44;4172266;28;20132;-72
2023/08/07 01:17:23;;;;;;;0.93;0.85;;;;;;;12.66;100.00;97604.78;4172584;28;20049;-72
2023/08/07 01:19:27;;;;;;;0.80;0.68;;;;;;;12.72;100.00;97599.53;4172772;28;20049;-72
2023/08/07 01:21:27;;;;;;;1.40;0.80;;;;;;;12.65;100.00;97609.50;4172215;28;20356;-72
2023/08/07 01:23:27;;;;;;;2.70;1.13;;;;;;;12.60;100.00;97623.84;4171699;28;20532;-72
2023/08/07 01:25:29;;;;;;;1.48;1.00;;;;;;;12.54;100.00;97619.16;4172389;28;20053;-72
2023/08/07 01:27:41;;;;;;;2.15;1.20;;;;;;;12.49;100.00;97625.13;4172231;28;20555;-72
2023/08/07 01:30:21;;;;;;;3.90;1.23;;;;;;;12.42;100.00;97626.03;4172644;28;20060;-72
2023/08/07 01:32:27;;;;;;;1.67;1.02;;;;;;;12.42;100.00;97620.47;4170259;28;20052;-72
2023/08/07 01:34:28;;;;;;;1.38;1.00;;;;;;;12.38;100.00;97626.03;4171310;28;20408;-72
2023/08/07 01:36:30;;;;;;;1.88;1.30;;;;;;;12.48;100.00;97626.34;4173547;28;20120;-72
2023/08/07 01:38:30;;;;;;;2.38;1.50;;;;;;;12.50;100.00;97621.97;4172297;28;20110;-72
2023/08/07 01:40:32;;;;;;;1.50;1.30;;;;;;;12.48;100.00;97629.91;4172590;28;20116;-72
2023/08/07 01:42:32;;;;;;;1.85;1.30;;;;;;;12.45;100.00;97625.19;4172078;28;20087;-72
2023/08/07 01:44:33;;;;;;;2.25;1.30;;;;;;;12.40;100.00;97628.41;4172367;28;20504;-72
2023/08/07 01:46:33;;;;;;;1.90;1.40;;;;;;;12.37;100.00;97624.47;4172149;28;20124;-72
2023/08/07 01:48:33;;;;;;;1.77;1.23;;;;;;;12.43;100.00;97629.59;4172556;28;20385;-72
2023/08/07 01:50:34;;;;;;;3.03;1.38;;;;;;;12.41;100.00;97632.75;4172701;28;20052;-72
2023/08/07 01:52:34;;;;;;;3.25;1.13;;;;;;;12.34;100.00;97636.38;4171794;28;20098;-72
2023/08/07 01:54:35;;;;;;;1.35;1.10;;;;;;;12.33;100.00;97634.03;4172056;28;20068;-72
2023/08/07 01:56:35;;;;;;;1.48;1.00;;;;;;;12.29;100.00;97636.81;4171964;28;20128;-72
2023/08/07 01:58:35;;;;;;;2.00;1.00;;;;;;;12.36;100.00;97642.31;4172190;28;20461;-72
2023/08/07 02:00:35;;;;;;;1.50;1.02;;;;;;;12.33;100.00;97645.91;4172501;28;20545;-72
2023/08/07 02:02:37;;;;;;;2.30;0.90;;;;;;;12.37;100.00;97654.19;4171680;28;20072;-72
2023/08/07 02:04:37;;;;;;;2.55;1.10;;;;;;;12.34;100.00;97657.78;4171444;28;20049;-72
2023/08/07 02:06:37;;;;;;;1.42;0.90;;;;;;;12.32;100.00;97652.63;4172106;28;20045;-72
2023/08/07 02:08:38;;;;;;;2.00;1.33;;;;;;;12.32;100.00;97646.31;4172088;28;20064;-72
2023/08/07 02:10:38;;;;;;;1.52;1.05;;;;;;;12.24;100.00;97648.34;4172048;28;20106;-72
2023/08/07 02:12:38;;;;;;;1.20;1.00;;;;;;;12.33;100.00;97645.91;4171490;28;20352;-72
2023/08/07 02:14:39;;;;;;;1.25;0.95;;;;;;;12.35;100.00;97657.38;4172987;28;20504;-72
2023/08/07 02:16:39;;;;;;;1.88;1.10;;;;;;;12.37;100.00;97643.88;4172560;28;20508;-72
2023/08/07 02:18:39;;;;;;;2.40;1.05;;;;;;;12.31;100.00;97650.28;4175281;28;20041;-72
2023/08/07 02:20:40;;;;;;;1.70;1.10;;;;;;;12.27;100.00;97655.06;4175163;28;20053;-72
2023/08/07 02:22:40;;;;;;;2.35;1.40;;;;;;;12.27;100.00;97650.31;4174467;28;20056;-72
2023/08/07 02:24:40;;;;;;;1.48;0.93;;;;;;;12.30;100.00;97652.25;4175150;28;20048;-72
2023/08/07 02:26:41;;;;;;;2.15;1.17;;;;;;;12.23;100.00;97657.88;4172561;28;20509;-72
2023/08/07 02:28:41;;;;;;;2.08;1.15;;;;;;;12.26;100.00;97654.28;4175647;28;20130;-72
2023/08/07 02:30:46;;;;;;;2.00;1.40;;;;;;;12.32;100.00;97660.16;4175535;28;20099;-72
2023/08/07 02:32:46;;;;;;;2.55;1.00;;;;;;;12.35;100.00;97651.03;4174150;28;20116;-72
2023/08/07 02:34:47;;;;;;;1.83;1.30;;;;;;;12.27;100.00;97644.78;4174399;28;20483;-72
2023/08/07 02:36:47;;;;;;;2.45;1.30;;;;;;;12.25;100.00;97660.25;4173814;28;20057;-72
2023/08/07 02:38:47;;;;;;;2.95;1.40;;;;;;;12.27;100.00;97661.41;4175344;28;20041;-72
2023/08/07 02:40:48;;;;;;;2.53;1.48;;;;;;;12.25;100.00;97663.81;4175045;28;20041;-72
2023/08/07 02:42:48;;;;;;;4.00;1.33;;;;;;;12.23;100.00;97659.84;4174745;28;20132;-72
2023/08/07 02:44:48;;;;;;;2.75;1.50;;;;;;;12.25;100.00;97661.03;4173259;28;20535;-72
2023/08/07 02:46:49;;;;;;;4.03;1.30;;;;;;;12.19;100.00;97665.44;4172628;28;20085;-72
2023/08/07 02:48:49;;;;;;;1.73;1.30;;;;;;;12.21;100.00;97665.81;4174864;28;20048;-72
2023/08/07 02:50:51;;;;;;;2.47;1.40;;;;;;;12.22;100.00;97670.16;4175445;28;20083;-72
2023/08/07 02:52:51;;;;;;;2.40;1.30;;;;;;;12.18;100.00;97668.63;4173772;28;20065;-72
2023/08/07 02:54:51;;;;;;;2.40;1.60;;;;;;;12.24;100.00;97667.75;4174007;28;20053;-72
2023/08/07 02:56:52;;;;;;;2.38;1.70;;;;;;;12.19;100.00;97665.44;4174092;28;20464;-72
2023/08/07 02:58:52;;;;;;;2.67;1.38;;;;;;;12.20;100.00;97667.00;4174999;28;20041;-72
2023/08/07 03:00:52;;;;;;;2.67;1.40;;;;;;;12.26;100.00;97670.16;4173904;28;20059;-72
2023/08/07 03:02:53;;;;;;;1.95;1.33;;;;;;;12.22;100.00;97677.69;4173134;28;20116;-72
2023/08/07 03:04:53;;;;;;;2.15;1.10;;;;;;;12.22;100.00;97672.94;4175192;28;20088;-72
2023/08/07 03:06:54;;;;;;;9.95;1.50;;;;;;;12.34;100.00;97680.78;4175276;28;20056;-72
2023/08/07 03:08:55;;;;;;;1.85;1.35;;;;;;;12.32;100.00;97669.28;4174339;28;20369;-72
2023/08/07 03:10:57;;;;;;;1.27;1.13;;;;;;;12.30;100.00;97677.22;4173973;28;20098;-71
2023/08/07 03:12:57;;;;;;;1.65;1.38;;;;;;;12.24;100.00;97678.06;4173253;28;20404;-72
2023/08/07 03:14:58;;;;;;;3.63;1.50;;;;;;;12.21;100.00;97678.88;4172527;28;20048;-72
2023/08/07 03:16:58;;;;;;;2.70;1.17;;;;;;;12.21;100.00;97674.13;4174043;28;20668;-72
2023/08/07 03:18:58;;;;;;;3.40;1.48;;;;;;;12.27;100.00;97675.28;4174097;28;20500;-72
2023/08/07 03:20:59;;;;;;;4.75;1.25;;;;;;;12.24;100.00;97676.06;4174149;28;20045;-72
2023/08/07 03:22:59;;;;;;;1.20;1.00;;;;;;;12.15;100.00;97675.75;4172873;28;20133;-72
2023/08/07 03:25:00;;;;;;;3.95;1.20;;;;;;;12.24;100.00;97675.28;4174236;28;20045;-71
2023/08/07 03:27:00;;;;;;;2.08;1.00;;;;;;;12.23;100.00;97668.97;4174094;28;20083;-72
2023/08/07 03:29:00;;;;;;;1.58;1.17;;;;;;;12.32;100.00;97679.59;4172684;28;20045;-72
2023/08/07 03:31:01;;;;;;;1.30;1.10;;;;;;;12.29;100.00;97692.28;4173750;28;20140;-72
2023/08/07 03:33:01;;;;;;;1.85;1.10;;;;;;;12.24;100.00;97683.59;4173504;28;20234;-71
2023/08/07 03:35:02;;;;;;;2.42;1.10;;;;;;;12.19;100.00;97682.06;4173775;28;20041;-72
2023/08/07 03:37:03;;;;;;;2.00;1.00;;;;;;;12.20;100.00;97689.19;4170967;28;20095;-72
2023/08/07 03:39:04;;;;;;;1.02;0.93;;;;;;;12.22;100.00;97681.25;4172165;28;20060;-72
2023/08/07 03:41:05;;;;;;;1.27;0.80;;;;;;;12.33;100.00;97695.06;4174759;28;20071;-72
2023/08/07 03:43:05;;;;;;;2.60;0.90;;;;;;;12.27;100.00;97678.06;4173105;28;20044;-72
2023/08/07 03:45:06;;;;;;;2.60;0.90;;;;;;;12.25;100.00;97691.53;4173060;28;20049;-72
2023/08/07 03:47:06;;;;;;;0.88;0.80;;;;;;;12.30;100.00;97681.97;4174696;28;20057;-72
2023/08/07 03:49:06;;;;;;;1.35;0.70;;;;;;;12.23;100.00;97682.81;4171557;28;20076;-72
2023/08/07 03:51:10;;;;;;;1.67;0.80;;;;;;;12.21;100.00;97687.22;4173105;28;20076;-72
2023/08/07 03:53:11;;;;;;;1.50;0.60;;;;;;;12.15;100.00;97686.06;4171107;28;20049;-72
2023/08/07 03:55:11;;;;;;;0.60;0.55;;;;;;;12.13;100.00;97688.47;4173044;28;20044;-72
2023/08/07 03:57:11;;;;;;;0.70;0.65;;;;;;;12.16;100.00;97704.28;4173051;28;20361;-72
2023/08/07 03:59:12;;;;;;;1.35;1.25;;;;;;;12.08;100.00;97697.97;4173173;28;20040;-72
2023/08/07 04:01:12;;;;;;;2.63;0.80;;;;;;;12.16;100.00;97713.38;4173543;28;20036;-72
2023/08/07 04:03:12;;;;;;;3.15;0.80;;;;;;;12.22;100.00;97700.66;4172759;28;20084;-72
2023/08/07 04:05:13;;;;;;;2.63;0.90;;;;;;;12.25;100.00;97697.09;4173045;28;20565;-71
2023/08/07 04:07:13;;;;;;;1.08;0.80;;;;;;;12.21;100.00;97703.84;4174006;28;20423;-72
2023/08/07 04:09:13;;;;;;;0.80;0.60;;;;;;;12.20;100.00;97705.06;4173281;28;20076;-72
2023/08/07 04:11:14;;;;;;;1.58;0.80;;;;;;;12.19;100.00;97704.25;4173568;28;20210;-72
2023/08/07 04:13:14;;;;;;;1.27;0.85;;;;;;;12.15;100.00;97697.94;4173114;28;20081;-72
2023/08/07 04:15:14;;;;;;;1.63;1.00;;;;;;;12.16;100.00;97698.72;4173202;28;20050;-72
2023/08/07 04:17:15;;;;;;;1.08;0.80;;;;;;;12.19;100.00;97707.03;4173667;28;20037;-72
2023/08/07 04:19:15;;;;;;;2.38;1.05;;;;;;;12.17;100.00;97703.09;4173438;28;20110;-72
2023/08/07 04:21:15;;;;;;;4.18;0.95;;;;;;;12.22;100.00;97697.88;4172429;28;20057;-72
2023/08/07 04:23:16;;;;;;;1.65;1.00;;;;;;;12.28;100.00;97701.81;4173013;28;20051;-72
2023/08/07 04:25:16;;;;;;;1.13;0.90;;;;;;;12.28;100.00;97712.13;4172730;28;20052;-72
2023/08/07 04:27:16;;;;;;;0.95;0.85;;;;;;;12.23;100.00;97705.00;4172879;28;20120;-72
2023/08/07 04:29:16;;;;;;;0.80;0.70;;;;;;;12.21;100.00;97712.16;4173200;28;20052;-72
2023/08/07 04:31:17;;;;;;;1.52;0.75;;;;;;;12.24;100.00;97717.69;4172696;28;20296;-72
2023/08/07 04:33:18;;;;;;;1.10;0.80;;;;;;;12.26;100.00;97718.09;4173164;28;20053;-72
2023/08/07 04:35:18;;;;;;;1.70;0.90;;;;;;;12.31;100.00;97722.38;4172575;28;20052;-72
2023/08/07 04:37:18;;;;;;;1.50;1.00;;;;;;;12.32;100.00;97715.63;4173304;28;20401;-72
2023/08/07 04:39:20;;;;;;;1.63;1.10;;;;;;;12.37;100.00;97729.09;4173366;28;20095;-72
2023/08/07 04:41:21;;;;;;;0.88;0.82;;;;;;;12.38;100.00;97725.13;4172760;28;20045;-72
2023/08/07 04:43:21;;;;;;;1.20;1.00;;;;;;;12.34;100.00;97735.47;4172506;28;20544;-71
2023/08/07 04:45:22;;;;;;;1.70;1.00;;;;;;;12.34;100.00;97730.69;4172038;28;20059;-72
2023/08/07 04:47:22;;;;;;;2.13;0.90;;;;;;;12.33;100.00;97740.22;4173244;28;20362;-72
2023/08/07 04:49:22;;;;;;;1.13;0.90;;;;;;;12.35;100.00;97735.03;4171597;28;20044;-72
2023/08/07 04:51:23;;;;;;;1.10;0.90;;;;;;;12.38;100.00;97747.31;4172397;28;20049;-72
2023/08/07 04:53:23;;;;;;;1.85;1.10;;;;;;;12.42;100.00;97755.63;4172824;28;20087;-72
2023/08/07 04:55:23;;;;;;;1.48;0.93;;;;;;;12.38;100.00;97761.19;4171860;28;20126;-72
2023/08/07 04:57:24;;;;;;;1.35;0.93;;;;;;;12.36;100.00;97760.81;4172701;28;20155;-72
2023/08/07 04:59:24;;;;;;;2.25;0.80;;;;;;;12.40;100.00;97760.75;4172731;28;20191;-72
2023/08/07 05:01:24;;;;;;;1.48;0.80;;;;;;;12.43;100.00;97757.97;4173080;28;20132;-72
2023/08/07 05:03:26;;;;;;;1.10;0.80;;;;;;;12.37;100.00;97757.63;4114300;28;20495;-72
2023/08/07 05:05:27;;;;;;;0.88;0.75;;;;;;;12.35;100.00;97759.22;4172831;28;20057;-72
2023/08/07 05:07:28;;;;;;;0.88;0.75;;;;;;;12.34;100.00;97761.22;4172330;28;20060;-72
2023/08/07 05:09:28;;;;;;;0.75;0.70;;;;;;;12.39;100.00;97762.75;4172139;28;20076;-72
2023/08/07 05:11:28;;;;;;;0.95;0.75;;;;;;;12.46;100.00;97764.69;4172752;28;20077;-72
2023/08/07 05:13:28;;;;;;;0.75;0.70;;;;;;;12.53;100.00;97756.31;4172100;28;20048;-72
2023/08/07 05:15:30;;;;;;;0.85;0.75;;;;;;;12.48;100.00;97754.75;4172628;28;20049;-72
2023/08/07 05:17:31;;;;;;;2.60;0.80;;;;;;;12.50;100.00;97759.91;4172760;28;20041;-72
2023/08/07 05:19:32;;;;;;;3.33;0.70;;;;;;;12.54;100.00;97755.91;4171678;28;20072;-72
2023/08/07 05:21:32;;;;;;;1.35;0.60;;;;;;;12.52;100.00;97761.06;4173053;28;20049;-72
2023/08/07 05:23:32;;;;;;;2.03;0.60;;;;;;;12.50;100.00;97763.47;4170578;28;20053;-71
2023/08/07 05:25:33;;;;;;;1.40;0.70;;;;;;;12.59;100.00;97766.56;4172155;28;20448;-72
2023/08/07 05:27:34;;;;;;;0.57;0.57;;;;;;;12.71;100.00;97770.03;4171982;28;20135;-72
2023/08/07 05:29:43;;;;;;;0.57;0.57;;;;;;;12.69;100.00;97764.13;4172142;28;20053;-72
2023/08/07 05:31:43;;;;;;;0.77;0.55;;;;;;;12.68;100.00;97776.41;4172504;28;20049;-72
2023/08/07 05:33:43;;;;;;;0.65;0.60;;;;;;;12.71;100.00;97767.28;4171290;28;20043;-72
2023/08/07 05:35:44;;;;;;;3.05;0.60;;;;;;;12.71;100.00;97767.28;4172346;28;20041;-72
2023/08/07 05:37:44;;;;;;;0.60;0.50;;;;;;;12.71;100.00;97775.59;4172661;28;20045;-72
2023/08/07 05:39:44;;;;;;;1.05;0.70;;;;;;;12.71;100.00;97773.59;4171671;28;20079;-72
2023/08/07 05:41:45;;;;;;;0.40;0.40;;;;;;;12.68;100.00;97776.41;4171123;28;20056;-72
2023/08/07 05:43:45;;;;;;;0.52;0.52;;;;;;;12.70;100.00;97779.56;4171406;28;20119;-72
2023/08/07 05:45:46;;;;;;;2.35;0.60;;;;;;;12.79;100.00;97793.78;4171846;28;20098;-72
2023/08/07 05:47:46;;;;;;;0.73;0.63;;;;;;;12.76;100.00;97787.06;4171170;28;20066;-72
2023/08/07 05:49:47;;;;;;;1.45;0.70;;;;;;;12.83;100.00;97791.75;4172288;28;20060;-72
2023/08/07 05:51:47;;;;;;;2.42;0.60;;;;;;;12.86;100.00;97782.59;4171637;28;20167;-72
2023/08/07 05:53:47;;;;;;;0.73;0.70;;;;;;;12.79;100.00;97789.00;4174433;28;20095;-72
2023/08/07 05:55:48;;;;;;;1.38;0.60;;;;;;;12.81;100.00;97788.59;4175594;28;20144;-72
2023/08/07 05:57:49;;;;;;;0.85;0.60;;;;;;;12.80;100.00;97787.81;4174687;28;20141;-72
2023/08/07 05:59:50;;;;;;;3.00;0.52;;;;;;;12.90;100.00;97795.25;4175514;28;20059;-72
2023/08/07 06:01:51;;;;;;;0.63;0.50;;;;;;;12.88;100.00;97792.09;4174806;28;20385;-72
2023/08/07 06:03:51;;;;;;;0.80;0.50;;;;;;;12.97;100.00;97790.84;4174940;28;20048;-72
2023/08/07 06:05:51;;;;;;;0.47;0.47;;;;;;;12.96;100.00;97792.03;4175442;28;20056;-72
2023/08/07 06:07:52;;;;;;;0.50;0.50;;;;;;;12.86;100.00;97797.28;4175687;28;20037;-72
2023/08/07 06:09:52;;;;;;;1.38;0.57;;;;;;;12.85;100.00;97786.59;4175502;28;20147;-72
2023/08/07 06:11:52;;;;;;;1.45;0.60;;;;;;;12.83;100.00;97786.22;4175468;28;20041;-72
2023/08/07 06:13:53;;;;;;;0.82;0.60;;;;;;;12.82;100.00;97795.72;4174856;28;20469;-72
2023/08/07 06:15:54;;;;;;;0.60;0.60;;;;;;;12.88;100.00;97796.88;4175157;28;20049;-72
2023/08/07 06:17:54;;;;;;;0.50;0.50;;;;;;;12.88;100.00;97796.88;4174883;28;20041;-72
2023/08/07 06:19:54;;;;;;;0.50;0.50;;;;;;;12.93;100.00;97800.00;4175013;28;20044;-72
2023/08/07 06:21:55;;;;;;;0.93;0.68;;;;;;;12.98;100.00;97798.75;4175325;28;20037;-72
2023/08/07 06:23:56;;;;;;;0.70;0.70;;;;;;;13.01;100.00;97808.25;4174929;28;20106;-72
2023/08/07 06:25:57;;;;;;;0.75;0.63;;;;;;;12.95;100.00;97799.56;4174984;28;20427;-72
2023/08/07 06:27:57;;;;;;;0.70;0.70;;;;;;;13.00;100.00;97810.25;4175475;28;20040;-72
2023/08/07 06:29:58;;;;;;;4.32;1.05;;;;;;;12.99;100.00;97810.63;4174783;28;20546;-72
2023/08/07 06:31:58;;;;;;;0.60;0.50;;;;;;;13.03;100.00;97806.66;4174301;28;20049;-72
2023/08/07 06:33:59;;;;;;;0.50;0.50;;;;;;;13.08;100.00;97817.31;4174377;28;20063;-72
2023/08/07 06:36:00;;;;;;;0.50;0.50;;;;;;;13.05;100.00;97809.00;4174538;28;20548;-72
2023/08/07 06:38:00;;;;;;;0.70;0.60;;;;;;;13.05;100.00;97807.00;4175506;28;20083;-72
2023/08/07 06:40:02;;;;;;;2.35;0.65;;;;;;;13.03;100.00;97814.19;4174479;28;20491;-73
2023/08/07 06:42:03;;;;;;;0.57;0.50;;;;;;;13.10;100.00;97805.81;4175008;28;20457;-72
2023/08/07 06:44:03;;;;;;;0.50;0.50;;;;;;;13.20;100.00;97810.50;4174202;28;20315;-72
2023/08/07 06:46:04;;;;;;;1.13;0.85;;;;;;;13.24;100.00;97804.88;4174876;28;20619;-72
2023/08/07 06:48:05;;;;;;;1.25;0.63;;;;;;;13.34;100.00;97804.00;4174983;28;20120;-72
2023/08/07 06:50:05;;;;;;;1.60;1.50;;;;;;;13.36;100.00;97812.72;4174856;28;20067;-72
2023/08/07 06:52:06;;;;;;;0.57;0.50;;;;;;;13.43;100.00;97807.88;4174643;28;20029;-72
2023/08/07 06:54:06;;;;;;;1.33;0.47;;;;;;;13.53;100.00;97814.50;4174225;28;20029;-72
2023/08/07 06:56:06;;;;;;;0.73;0.43;;;;;;;13.59;100.00;97823.97;4174867;28;20036;-72
2023/08/07 06:58:07;;;;;;;1.23;0.60;;;;;;;13.71;100.00;97828.22;4175318;28;20057;-72
2023/08/07 07:00:10;;;;;;;0.32;0.32;;;;;;;13.75;100.00;97820.63;4174603;28;20116;-72
2023/08/07 07:02:11;;;;;;;0.40;0.40;;;;;;;13.82;100.00;97816.97;4173968;28;20021;-72
2023/08/07 07:04:11;;;;;;;0.30;0.30;;;;;;;13.88;100.00;97826.44;4173804;28;20061;-72
2023/08/07 07:06:12;;;;;;;0.40;0.40;;;;;;;13.86;100.00;97823.28;4174005;28;20476;-72
2023/08/07 07:08:12;;;;;;;0.40;0.40;;;;;;;13.90;100.00;97829.56;4174619;28;20117;-72
2023/08/07 07:10:12;;;;;;;0.40;0.40;;;;;;;13.82;100.00;97828.06;4174440;28;20072;-72
2023/08/07 07:12:13;;;;;;;0.30;0.30;;;;;;;13.77;100.00;97832.13;4174751;28;20028;-72
2023/08/07 07:14:13;;;;;;;0.40;0.40;;;;;;;13.79;100.00;97832.47;4173655;28;20036;-72
2023/08/07 07:16:14;;;;;;;0.40;0.40;;;;;;;13.83;100.00;97844.38;4174150;28;20074;-72
2023/08/07 07:18:14;;;;;;;0.50;0.40;;;;;;;13.86;100.00;97842.75;4174597;28;20112;-72
2023/08/07 07:20:14;;;;;;;1.00;0.40;;;;;;;13.93;100.00;97849.00;4174073;28;20029;-72
2023/08/07 07:22:15;;;;;;;0.90;0.65;;;;;;;13.94;100.00;97847.81;4174429;28;20041;-72
2023/08/07 07:24:15;;;;;;;1.75;0.45;;;;;;;13.95;100.00;97848.59;4173139;28;20171;-72
2023/08/07 07:26:15;;;;;;;0.40;0.40;;;;;;;13.97;100.00;97846.16;4174425;28;20033;-72
2023/08/07 07:28:15;;;;;;;0.30;0.30;;;;;;;13.99;100.00;97854.91;4174432;28;20037;-72
2023/08/07 07:30:16;;;;;;;1.63;0.40;;;;;;;14.01;100.00;97850.50;4173837;28;20041;-72
2023/08/07 07:32:16;;;;;;;0.40;0.40;;;;;;;14.07;100.00;97856.41;4174518;28;20044;-72
2023/08/07 07:34:16;;;;;;;0.40;0.40;;;;;;;14.12;100.00;97860.69;4173454;28;20032;-72
2023/08/07 07:36:18;;;;;;;0.50;0.50;;;;;;;14.12;100.00;97863.47;4173982;28;20029;-72
2023/08/07 07:38:19;;;;;;;1.10;0.35;;;;;;;13.97;100.00;97869.22;4174435;28;20150;-72
2023/08/07 07:40:19;;;;;;;1.73;0.40;;;;;;;13.98;100.00;97867.22;4173506;28;20067;-72
2023/08/07 07:42:19;;;;;;;0.40;0.40;;;;;;;13.99;100.00;97863.25;4174048;28;20144;-72
2023/08/07 07:44:20;;;;;;;0.40;0.40;;;;;;;14.04;100.00;97874.69;4172504;28;20108;-72
2023/08/07 07:46:20;;;;;;;0.38;0.30;;;;;;;14.05;100.00;97867.13;4174289;28;20218;-72
2023/08/07 07:48:20;;;;;;;0.57;0.32;;;;;;;13.98;100.00;97883.91;4173880;28;20060;-72
2023/08/07 07:50:21;;;;;;;1.58;0.60;;;;;;;13.93;100.00;97878.81;4173723;28;20053;-72
2023/08/07 07:52:21;;;;;;;0.30;0.30;;;;;;;13.98;100.00;97878.34;4174635;28;20048;-72
2023/08/07 07:54:21;;;;;;;0.30;0.30;;;;;;;13.99;100.00;97886.28;4173209;28;20080;-72
2023/08/07 07:56:22;;;;;;;4.13;0.50;;;;;;;13.98;100.00;97879.16;4173862;28;20215;-72
2023/08/07 07:58:23;;;;;;;0.57;0.40;;;;;;;13.98;100.00;97883.91;4172454;28;20301;-72
2023/08/07 08:00:26;;;;;;;0.40;0.40;;;;;;;14.01;100.00;97888.66;4173333;28;20412;-72
2023/08/07 08:02:27;;;;;;;0.57;0.45;;;;;;;13.90;100.00;97890.75;4173209;28;20037;-72
2023/08/07 08:04:27;;;;;;;1.23;0.47;;;;;;;13.99;100.00;97897.41;4173486;28;20071;-72
2023/08/07 08:06:28;;;;;;;0.50;0.50;;;;;;;13.97;100.00;97893.44;4174034;28;20401;-72
2023/08/07 08:08:28;;;;;;;0.65;0.60;;;;;;;14.01;100.00;97908.91;4173431;28;20049;-72
2023/08/07 08:10:28;;;;;;;5.28;0.80;;;;;;;13.96;100.00;97914.91;4173654;28;20051;-72
2023/08/07 08:12:30;;;;;;;0.70;0.60;;;;;;;13.95;100.00;97909.78;4173077;28;20037;-72
2023/08/07 08:14:30;;;;;;;0.80;0.73;;;;;;;14.01;100.00;97902.56;4172497;28;20110;-72
2023/08/07 08:16:31;;;;;;;1.40;0.50;;;;;;;14.09;100.00;97909.63;4172977;28;20341;-72
2023/08/07 08:18:31;;;;;;;0.85;0.63;;;;;;;14.21;100.00;97914.63;4173327;28;20076;-72
2023/08/07 08:20:32;;;;;;;1.02;0.70;;;;;;;14.22;100.00;97907.84;4173512;28;20049;-72
2023/08/07 08:22:33;;;;;;;0.70;0.60;;;;;;;14.27;100.00;97909.41;4172482;28;20345;-72
2023/08/07 08:24:33;;;;;;;1.67;0.60;;;;;;;14.33;100.00;97916.09;4173028;28;20045;-72
2023/08/07 08:26:33;;;;;;;0.73;0.70;;;;;;;14.39;100.00;97911.63;4173047;28;20048;-72
2023/08/07 08:28:34;;;;;;;0.40;0.40;;;;;;;14.48;100.00;97913.91;4171701;28;20045;-72
2023/08/07 08:30:34;;;;;;;0.40;0.40;;;;;;;14.57;100.00;97920.56;4172758;28;20202;-72
2023/08/07 08:32:34;;;;;;;6.13;0.50;;;;;;;14.47;100.00;97917.91;4172065;28;20059;-72
2023/08/07 08:34:35;;;;;;;0.50;0.50;;;;;;;14.47;100.00;97929.84;4172996;28;20342;-72
2023/08/07 08:36:35;;;;;;;0.30;0.30;;;;;;;14.48;100.00;97933.41;4172628;28;20063;-72
2023/08/07 08:38:35;;;;;;;0.50;0.30;;;;;;;14.41;100.00;97925.94;4172718;28;20452;-72
2023/08/07 08:40:38;;;;;;;0.43;0.43;;;;;;;14.47;100.00;97924.28;4172177;28;20151;-72
2023/08/07 08:42:42;;;;;;;1.88;0.52;;;;;;;14.49;100.00;97921.88;4171341;28;20501;-72
2023/08/07 08:44:51;;;;;;;0.70;0.47;;;;;;;14.52;100.00;97937.72;4172593;28;20049;-72
2023/08/07 08:46:55;;;;;;;0.40;0.40;;;;;;;14.60;100.00;97939.22;4171853;28;20106;-72
2023/08/07 08:48:58;;;;;;;0.40;0.40;;;;;;;14.68;100.00;97956.63;4172741;28;20033;-72
2023/08/07 08:50:59;;;;;;;0.30;0.30;;;;;;;14.61;100.00;97951.16;4172331;28;20168;-72
2023/08/07 08:53:00;;;;;;;2.83;0.60;;;;;;;14.67;100.00;97945.91;4171461;28;20088;-72
2023/08/07 08:55:01;;;;;;;0.85;0.50;;;;;;;14.77;100.00;97953.31;4172593;28;20386;-72
2023/08/07 08:57:01;;;;;;;0.30;0.30;;;;;;;14.79;100.00;97945.31;4171969;28;20059;-72
2023/08/07 08:59:02;;;;;;;0.80;0.45;;;;;;;14.89;100.00;97958.31;4172358;28;20114;-72
2023/08/07 09:01:04;;;;;;;2.83;0.40;;;;;;;15.00;100.00;97953.41;4172787;28;20091;-72
2023/08/07 09:03:05;;;;;;;0.40;0.35;;;;;;;15.12;100.00;97949.22;4171252;28;20102;-73
2023/08/07 09:05:05;;;;;;;0.30;0.30;;;;;;;15.24;100.00;97956.22;4172272;28;20564;-72
2023/08/07 09:07:06;;;;;;;0.30;0.30;;;;;;;15.32;100.00;97950.13;4172447;28;20045;-72
2023/08/07 09:09:08;;;;;;;0.47;0.30;;;;;;;15.42;100.00;97951.94;4172514;28;20052;-72
2023/08/07 09:11:10;;;;;;;0.45;0.30;;;;;;;15.45;100.00;97958.66;4171946;28;20128;-72
2023/08/07 09:13:14;;;;;;;0.20;0.20;;;;;;;15.36;100.00;97950.06;4171423;28;20412;-72
2023/08/07 09:15:16;;;;;;;0.30;0.30;;;;;;;15.32;100.00;97958.50;4170765;28;20378;-72
2023/08/07 09:17:17;;;;;;;1.00;0.30;;;;;;;15.35;100.00;97949.28;4172334;28;20048;-72
2023/08/07 09:19:17;;;;;;;0.40;0.40;;;;;;;15.31;100.00;97959.69;4172210;28;20037;-72
2023/08/07 09:21:18;;;;;;;0.20;0.20;;;;;;;15.12;100.00;97963.94;4171098;28;20054;-72